Time;durP1;ratioP1;P1;durP2;ratioP2;P2;SDS_P1;SDS_P2;PMS_P1;PMS_P2;Temp;Humidity;BMP_temperature;BMP_pressure;BME280_temperature;BME280_humidity;BME280_pressure;Samples;Min_cycle;Max_cycle;Signal;HPM_P1;HPM_P2
2023/06/10 00:00:06;;;;;;;0.40;0.40;;;;;;;11.80;51.61;99569.09;5090417;28;20047;-82
2023/06/10 00:02:43;;;;;;;0.40;0.40;;;;;;;11.82;51.92;99588.59;5090620;28;20541;-82
2023/06/10 00:05:11;;;;;;;0.40;0.40;;;;;;;11.68;52.20;99579.94;5090476;28;20055;-82
2023/06/10 00:07:39;;;;;;;0.40;0.40;;;;;;;11.60;52.77;99570.31;5072307;28;20423;-81
2023/06/10 00:10:08;;;;;;;0.50;0.50;;;;;;;11.47;53.16;99567.88;5090174;28;20048;-81
2023/06/10 00:12:36;;;;;;;0.50;0.50;;;;;;;11.35;53.54;99575.97;5090389;28;20048;-81
2023/06/10 00:15:07;;;;;;;0.50;0.50;;;;;;;11.19;54.11;99566.72;5090205;28;20048;-81
2023/06/10 00:17:40;;;;;;;0.50;0.50;;;;;;;11.32;54.38;99586.41;5072668;28;20056;-81
2023/06/10 00:20:11;;;;;;;0.40;0.40;;;;;;;11.29;54.83;99598.50;5089462;28;20044;-82
2023/06/10 00:22:41;;;;;;;0.40;0.40;;;;;;;11.24;54.88;99580.34;5090251;28;20048;-82
2023/06/10 00:25:10;;;;;;;0.50;0.50;;;;;;;11.33;54.75;99582.69;5089917;28;20423;-81
2023/06/10 00:27:41;;;;;;;0.40;0.40;;;;;;;11.46;55.21;99596.75;5090383;28;20076;-82
2023/06/10 00:30:11;;;;;;;0.50;0.50;;;;;;;11.52;55.09;99595.00;5089859;28;20044;-81
2023/06/10 00:32:38;;;;;;;0.50;0.50;;;;;;;11.52;55.05;99586.06;5072001;28;20051;-81
2023/06/10 00:35:06;;;;;;;0.50;0.50;;;;;;;11.68;55.04;99615.09;5071522;28;20073;-80
2023/06/10 00:37:37;;;;;;;0.50;0.50;;;;;;;11.68;55.11;99613.19;5071967;28;20092;-82
2023/06/10 00:40:05;;;;;;;0.40;0.40;;;;;;;11.50;55.46;99594.44;5089865;28;20540;-82
2023/06/10 00:42:32;;;;;;;0.40;0.40;;;;;;;11.46;55.27;99579.72;5072348;28;20070;-81
2023/06/10 00:45:00;;;;;;;0.45;0.45;;;;;;;11.63;55.33;99625.78;5072029;28;20040;-81
2023/06/10 00:47:30;;;;;;;0.40;0.40;;;;;;;11.57;55.10;99616.75;5071806;28;20414;-82
2023/06/10 00:49:58;;;;;;;0.40;0.40;;;;;;;11.54;55.08;99611.78;5055425;28;20044;-82
2023/06/10 00:52:28;;;;;;;0.40;0.40;;;;;;;11.57;55.05;99630.28;5039369;28;20048;-81
2023/06/10 00:54:55;;;;;;;0.50;0.50;;;;;;;11.77;55.12;99645.28;5090400;28;20048;-81
2023/06/10 00:57:29;;;;;;;0.40;0.40;;;;;;;11.63;55.12;99628.50;5073393;28;20052;-82
2023/06/10 00:59:59;;;;;;;0.40;0.40;;;;;;;11.76;54.67;99649.88;5090002;28;20048;-81
2023/06/10 01:02:27;;;;;;;0.50;0.50;;;;;;;11.68;54.58;99648.34;5075837;28;20105;-80
2023/06/10 01:04:59;;;;;;;0.40;0.40;;;;;;;11.54;54.53;99632.59;5075543;28;20508;-82
2023/06/10 01:07:57;;;;;;;0.40;0.40;;;;;;;11.73;54.40;99657.66;5059040;28;20048;-81
2023/06/10 01:10:34;;;;;;;0.50;0.50;;;;;;;11.73;54.48;99657.66;5093848;28;20055;-82
2023/06/10 01:13:08;;;;;;;0.40;0.40;;;;;;;11.55;54.32;99634.28;5093311;28;20143;-82
2023/06/10 01:15:56;;;;;;;0.50;0.50;;;;;;;11.71;54.34;99656.00;5077997;28;20497;-81
2023/06/10 01:18:30;;;;;;;0.40;0.40;;;;;;;11.73;54.33;99671.16;5075712;28;20056;-82
2023/06/10 01:20:58;;;;;;;0.43;0.43;;;;;;;11.60;54.21;99654.13;5075540;28;20081;-82
2023/06/10 01:23:25;;;;;;;0.47;0.47;;;;;;;11.70;54.07;99653.53;5093503;28;20533;-83
2023/06/10 01:25:59;;;;;;;0.40;0.40;;;;;;;11.71;54.30;99672.22;5093187;28;20048;-82
2023/06/10 01:28:36;;;;;;;0.40;0.40;;;;;;;11.67;54.66;99664.81;5058759;28;20048;-80
2023/06/10 01:31:15;;;;;;;0.40;0.40;;;;;;;11.64;54.40;99663.38;5075209;28;20079;-81
2023/06/10 01:33:45;;;;;;;0.40;0.40;;;;;;;11.67;54.62;99671.06;5092361;28;20055;-82
2023/06/10 01:36:16;;;;;;;0.40;0.40;;;;;;;11.48;55.07;99662.22;5058736;28;20059;-82
2023/06/10 01:38:45;;;;;;;0.40;0.40;;;;;;;11.53;55.04;99658.00;5074923;28;20113;-82
2023/06/10 01:41:16;;;;;;;0.40;0.40;;;;;;;11.55;55.11;99667.53;5075089;28;20395;-81
2023/06/10 01:43:46;;;;;;;0.50;0.50;;;;;;;11.52;55.40;99670.69;5074491;28;20093;-82
2023/06/10 01:46:14;;;;;;;0.50;0.50;;;;;;;11.39;55.86;99663.63;5093039;28;20131;-82
2023/06/10 01:48:45;;;;;;;0.40;0.40;;;;;;;11.26;56.11;99663.84;5093055;28;20218;-81
2023/06/10 01:51:12;;;;;;;0.50;0.50;;;;;;;11.32;56.49;99684.53;5093349;28;20056;-80
2023/06/10 01:53:39;;;;;;;0.50;0.50;;;;;;;11.26;56.84;99671.94;5093239;28;20047;-82
2023/06/10 01:56:06;;;;;;;0.50;0.50;;;;;;;11.16;56.95;99669.81;5092508;28;20048;-81
2023/06/10 01:58:34;;;;;;;0.50;0.50;;;;;;;11.31;57.02;99688.28;5074408;28;20052;-82
2023/06/10 02:01:01;;;;;;;0.50;0.50;;;;;;;11.25;57.26;99695.44;5091303;28;20560;-82
2023/06/10 02:03:29;;;;;;;0.50;0.50;;;;;;;11.15;57.59;99676.28;5092646;28;20068;-82
2023/06/10 02:05:56;;;;;;;0.40;0.40;;;;;;;11.12;58.06;99706.47;5074545;28;20502;-83
2023/06/10 02:08:24;;;;;;;0.50;0.50;;;;;;;11.05;58.28;99700.34;5074917;28;20135;-80
2023/06/10 02:10:54;;;;;;;0.50;0.50;;;;;;;11.05;58.54;99711.13;5092413;28;20408;-81
2023/06/10 02:13:21;;;;;;;0.50;0.50;;;;;;;10.98;58.97;99703.13;5074814;28;20048;-80
2023/06/10 02:15:54;;;;;;;0.50;0.50;;;;;;;10.87;59.00;99689.59;5074693;28;20036;-81
2023/06/10 02:18:21;;;;;;;0.50;0.50;;;;;;;10.99;59.08;99706.66;5074698;28;20418;-80
2023/06/10 02:20:49;;;;;;;0.50;0.50;;;;;;;10.82;59.17;99688.41;5073878;28;20047;-80
2023/06/10 02:23:16;;;;;;;0.50;0.50;;;;;;;10.93;59.12;99694.88;5092517;28;20047;-81
2023/06/10 02:25:44;;;;;;;0.50;0.50;;;;;;;10.93;59.27;99697.59;5074354;28;20051;-82
2023/06/10 02:28:14;;;;;;;0.50;0.50;;;;;;;10.95;59.51;99686.56;5074824;28;20048;-81
2023/06/10 02:30:43;;;;;;;0.50;0.50;;;;;;;11.03;59.53;99715.94;5074394;28;20039;-80
2023/06/10 02:33:10;;;;;;;0.50;0.50;;;;;;;10.87;59.75;99690.41;5092005;28;20110;-82
2023/06/10 02:35:41;;;;;;;0.50;0.50;;;;;;;10.81;59.86;99692.16;5073853;28;20126;-82
2023/06/10 02:38:08;;;;;;;0.50;0.50;;;;;;;10.73;60.18;99692.47;5073553;28;20437;-82
2023/06/10 02:40:36;;;;;;;0.50;0.50;;;;;;;10.76;60.03;99691.19;5073677;28;20036;-81
2023/06/10 02:43:03;;;;;;;0.50;0.50;;;;;;;10.92;60.35;99717.56;5091844;28;20139;-81
2023/06/10 02:45:32;;;;;;;0.50;0.50;;;;;;;10.94;60.26;99720.84;5091908;28;20145;-82
2023/06/10 02:48:01;;;;;;;0.50;0.50;;;;;;;10.80;60.34;99698.59;5090478;28;20465;-82
2023/06/10 02:50:30;;;;;;;0.50;0.50;;;;;;;10.74;60.52;99698.72;5091688;28;20032;-81
2023/06/10 02:53:20;;;;;;;0.50;0.50;;;;;;;10.71;60.55;99700.00;5066763;28;20060;-81
2023/06/10 02:55:54;;;;;;;0.50;0.50;;;;;;;10.93;60.62;99715.66;5090460;28;20075;-80
2023/06/10 02:58:22;;;;;;;0.50;0.50;;;;;;;11.02;60.80;99725.09;5090790;28;20058;-81
2023/06/10 03:00:50;;;;;;;0.50;0.50;;;;;;;10.93;60.81;99703.00;5090268;28;20051;-82
2023/06/10 03:03:18;;;;;;;0.50;0.50;;;;;;;10.95;60.60;99710.88;5073590;28;20044;-81
2023/06/10 03:05:58;;;;;;;0.50;0.50;;;;;;;10.85;60.22;99706.03;5090018;28;20047;-81
2023/06/10 03:08:27;;;;;;;0.60;0.60;;;;;;;10.92;60.05;99716.75;5057498;28;20476;-81
2023/06/10 03:10:58;;;;;;;0.50;0.50;;;;;;;10.95;60.06;99708.16;5057137;28;20067;-82
2023/06/10 03:13:28;;;;;;;0.50;0.50;;;;;;;11.01;60.25;99704.53;5073102;28;20372;-81
2023/06/10 03:15:56;;;;;;;0.50;0.50;;;;;;;11.26;59.78;99739.50;5072934;28;20493;-81
2023/06/10 03:18:26;;;;;;;0.52;0.52;;;;;;;11.31;59.23;99736.09;5073143;28;20056;-82
2023/06/10 03:20:56;;;;;;;0.50;0.50;;;;;;;11.18;59.25;99715.50;5090893;28;20064;-81
2023/06/10 03:23:27;;;;;;;0.50;0.50;;;;;;;11.12;58.74;99721.84;5089344;28;20048;-81
2023/06/10 03:25:54;;;;;;;0.50;0.50;;;;;;;11.27;58.85;99735.75;5072827;28;20056;-82
2023/06/10 03:28:23;;;;;;;0.50;0.50;;;;;;;11.05;58.90;99711.13;5072975;28;20090;-82
2023/06/10 03:30:51;;;;;;;0.50;0.50;;;;;;;11.31;58.63;99741.50;5072877;28;20460;-81
2023/06/10 03:33:26;;;;;;;0.50;0.50;;;;;;;11.32;58.72;99743.16;5073224;28;20048;-82
2023/06/10 03:35:53;;;;;;;0.50;0.50;;;;;;;11.37;58.65;99748.69;5089457;28;20075;-82
2023/06/10 03:38:22;;;;;;;0.50;0.50;;;;;;;11.43;58.83;99745.06;5056463;28;20063;-82
2023/06/10 03:40:53;;;;;;;0.50;0.50;;;;;;;11.42;58.35;99748.81;5073112;28;20043;-82
2023/06/10 03:43:21;;;;;;;0.50;0.50;;;;;;;11.56;57.85;99754.84;5056372;28;20421;-81
2023/06/10 03:45:52;;;;;;;0.57;0.57;;;;;;;11.37;57.63;99721.66;5055766;28;20094;-82
2023/06/10 03:48:25;;;;;;;0.50;0.50;;;;;;;11.51;57.88;99728.50;5089773;28;20040;-82
2023/06/10 03:50:53;;;;;;;0.50;0.50;;;;;;;11.82;57.29;99758.97;5069838;28;20052;-81
2023/06/10 03:53:21;;;;;;;0.52;0.52;;;;;;;11.71;57.19;99745.22;5069590;28;20044;-81
2023/06/10 03:55:51;;;;;;;0.50;0.50;;;;;;;11.82;56.93;99753.56;5070990;28;20048;-82
2023/06/10 03:58:22;;;;;;;0.50;0.50;;;;;;;11.71;56.82;99728.19;5086180;28;20110;-81
2023/06/10 04:00:49;;;;;;;0.50;0.50;;;;;;;11.80;56.73;99734.88;5070796;28;20407;-81
2023/06/10 04:03:16;;;;;;;0.50;0.50;;;;;;;12.08;56.59;99752.34;5070519;28;20044;-81
2023/06/10 04:05:47;;;;;;;0.50;0.50;;;;;;;12.18;56.32;99762.53;5069029;28;20060;-83
2023/06/10 04:08:14;;;;;;;0.43;0.43;;;;;;;12.01;55.56;99747.03;5090703;28;20090;-81
2023/06/10 04:10:42;;;;;;;0.50;0.50;;;;;;;12.20;55.42;99765.84;5071665;28;20186;-81
2023/06/10 04:13:09;;;;;;;0.50;0.50;;;;;;;12.24;55.31;99770.53;5051828;28;20081;-80
2023/06/10 04:15:43;;;;;;;0.50;0.50;;;;;;;12.00;55.03;99739.13;5063596;28;20039;-81
2023/06/10 04:18:16;;;;;;;0.50;0.50;;;;;;;12.27;54.78;99772.78;5081441;28;20272;-81
2023/06/10 04:20:44;;;;;;;0.50;0.50;;;;;;;12.23;55.19;99757.22;4716724;28;9999978;-80
2023/06/10 04:23:14;;;;;;;0.50;0.50;;;;;;;12.38;54.98;99762.16;5067311;28;20080;-80
2023/06/10 04:25:44;;;;;;;0.50;0.50;;;;;;;12.46;54.95;99754.50;5069793;28;20070;-81
2023/06/10 04:28:12;;;;;;;0.50;0.50;;;;;;;12.66;54.08;99764.09;5069069;28;20151;-82
2023/06/10 04:30:41;;;;;;;0.50;0.50;;;;;;;12.50;54.24;99752.97;5067445;28;20059;-81
2023/06/10 04:33:09;;;;;;;0.40;0.40;;;;;;;12.56;54.25;99743.91;5083751;28;20044;-81
2023/06/10 04:35:38;;;;;;;0.50;0.50;;;;;;;12.69;54.05;99752.81;5070203;28;20048;-82
2023/06/10 04:38:07;;;;;;;0.50;0.50;;;;;;;12.85;53.59;99773.72;5089283;28;20422;-81
2023/06/10 04:40:37;;;;;;;0.50;0.50;;;;;;;12.69;53.51;99753.63;5090110;28;20201;-81
2023/06/10 04:43:05;;;;;;;0.50;0.50;;;;;;;12.78;53.35;99775.72;5069918;28;20056;-80
2023/06/10 04:45:34;;;;;;;0.50;0.50;;;;;;;12.69;53.74;99766.34;5068815;28;20044;-83
2023/06/10 04:48:03;;;;;;;0.50;0.50;;;;;;;12.90;53.36;99783.84;5055106;28;20051;-80
2023/06/10 04:50:32;;;;;;;0.50;0.50;;;;;;;12.85;53.02;99759.34;5056633;28;20046;-80
2023/06/10 04:53:00;;;;;;;0.50;0.50;;;;;;;13.01;52.89;99781.09;5082403;28;20109;-79
2023/06/10 04:55:28;;;;;;;0.47;0.47;;;;;;;13.01;53.12;99762.13;5058781;28;20538;-79
2023/06/10 04:57:58;;;;;;;0.40;0.40;;;;;;;13.25;52.83;99794.53;5093367;28;20051;-80
2023/06/10 05:00:26;;;;;;;0.50;0.50;;;;;;;13.37;52.39;99789.09;5086083;28;20542;-81
2023/06/10 05:02:53;;;;;;;0.40;0.40;;;;;;;13.37;52.24;99784.50;5050508;28;20181;-80
2023/06/10 05:05:20;;;;;;;0.40;0.40;;;;;;;13.48;52.25;99792.81;5085231;28;20063;-80
2023/06/10 05:07:48;;;;;;;0.40;0.40;;;;;;;13.50;51.55;99794.22;5069846;28;20048;-79
2023/06/10 05:10:36;;;;;;;0.40;0.40;;;;;;;13.24;49.93;99782.03;5089926;28;20144;-80
2023/06/10 05:13:03;;;;;;;0.50;0.50;;;;;;;13.34;50.01;99795.81;5092039;28;20052;-80
2023/06/10 05:15:30;;;;;;;0.50;0.50;;;;;;;13.37;49.95;99789.09;5092910;28;20076;-80
2023/06/10 05:17:58;;;;;;;0.50;0.50;;;;;;;13.18;49.23;99777.59;5075348;28;20515;-79
2023/06/10 05:20:49;;;;;;;0.50;0.50;;;;;;;13.36;49.41;99804.50;5073676;28;20032;-81
2023/06/10 05:26:06;;;;;;;0.50;0.50;;;;;;;13.46;49.75;99803.06;5069908;28;20086;-81
2023/06/10 05:28:33;;;;;;;0.50;0.50;;;;;;;13.31;49.77;99779.22;5093119;28;20048;-81
2023/06/10 05:31:00;;;;;;;0.50;0.50;;;;;;;13.52;49.51;99805.63;5091277;28;20079;-82
2023/06/10 05:33:27;;;;;;;0.43;0.43;;;;;;;13.61;49.22;99809.56;5090701;28;20052;-84
2023/06/10 05:35:56;;;;;;;0.47;0.47;;;;;;;13.77;49.57;99810.66;5090070;28;20047;-81
2023/06/10 05:38:23;;;;;;;0.40;0.40;;;;;;;13.80;49.37;99812.91;5089446;28;20086;-82
2023/06/10 05:40:51;;;;;;;0.50;0.50;;;;;;;13.73;48.94;99804.09;5072344;28;20075;-83
2023/06/10 05:43:18;;;;;;;0.40;0.40;;;;;;;13.70;48.85;99782.88;5072844;28;20094;-82
2023/06/10 05:45:46;;;;;;;0.50;0.50;;;;;;;13.94;48.82;99818.81;5072014;28;20511;-83
2023/06/10 05:48:23;;;;;;;0.50;0.50;;;;;;;13.95;48.68;99816.91;5055573;28;20395;-82
2023/06/10 05:50:50;;;;;;;0.50;0.50;;;;;;;14.03;47.85;99811.91;5072183;28;20143;-82
2023/06/10 05:53:17;;;;;;;0.40;0.40;;;;;;;14.16;47.80;99816.16;5071412;28;20051;-83
2023/06/10 05:55:58;;;;;;;0.50;0.50;;;;;;;14.19;47.71;99810.25;5050837;28;20044;-80
2023/06/10 05:58:26;;;;;;;0.40;0.40;;;;;;;14.22;47.91;99800.78;5092542;28;20113;-83
2023/06/10 06:00:54;;;;;;;0.43;0.43;;;;;;;14.19;47.69;99788.53;5092220;28;20055;-84
2023/06/10 06:03:21;;;;;;;0.40;0.40;;;;;;;14.45;46.76;99806.00;5092867;28;20450;-83
2023/06/10 06:05:49;;;;;;;0.40;0.40;;;;;;;14.63;46.73;99817.66;5091566;28;20137;-82
2023/06/10 06:08:18;;;;;;;0.40;0.40;;;;;;;14.47;46.59;99805.75;5072193;28;20048;-83
2023/06/10 06:10:47;;;;;;;0.40;0.40;;;;;;;14.52;45.71;99817.50;5054794;28;20517;-82
2023/06/10 06:13:15;;;;;;;0.40;0.40;;;;;;;14.48;46.19;99794.66;5072365;28;20052;-83
2023/06/10 06:15:44;;;;;;;0.50;0.50;;;;;;;14.53;45.69;99802.06;5072411;28;20044;-81
2023/06/10 06:18:13;;;;;;;0.50;0.50;;;;;;;14.68;45.08;99804.97;5005961;28;20098;-82
2023/06/10 06:20:44;;;;;;;0.50;0.50;;;;;;;14.87;45.24;99823.69;5072004;28;20045;-83
2023/06/10 06:23:11;;;;;;;0.40;0.40;;;;;;;14.94;45.00;99821.63;5071865;28;20488;-82
2023/06/10 06:25:39;;;;;;;0.50;0.50;;;;;;;15.08;44.77;99822.84;5085854;28;20068;-82
2023/06/10 06:28:08;;;;;;;0.45;0.45;;;;;;;15.23;44.12;99807.81;5073957;28;20044;-83
2023/06/10 06:30:36;;;;;;;0.50;0.50;;;;;;;15.45;43.52;99811.28;5074030;28;20540;-82
2023/06/10 06:33:22;;;;;;;0.50;0.50;;;;;;;15.94;43.11;99827.53;5074273;28;20051;-82
2023/06/10 06:36:26;;;;;;;0.50;0.50;;;;;;;15.97;42.88;99834.38;5090582;28;20043;-82
2023/06/10 06:41:42;;;;;;;0.40;0.40;;;;;;;15.68;42.53;99826.47;5074116;28;20093;-82
2023/06/10 06:44:12;;;;;;;0.40;0.40;;;;;;;15.35;43.48;99816.63;5091659;28;20048;-82
2023/06/10 06:46:43;;;;;;;0.50;0.50;;;;;;;15.30;42.46;99838.34;5094109;28;20040;-83
2023/06/10 06:49:10;;;;;;;0.50;0.50;;;;;;;15.64;42.29;99829.97;5073818;28;20052;-82
2023/06/10 06:51:38;;;;;;;0.50;0.50;;;;;;;15.90;41.55;99848.22;5061008;28;20048;-82
2023/06/10 06:56:54;;;;;;;0.50;0.50;;;;;;;16.13;40.91;99836.16;5071178;28;20050;-82
2023/06/10 06:59:21;;;;;;;0.50;0.50;;;;;;;16.26;40.33;99821.25;5070074;28;20083;-82
2023/06/10 07:02:07;;;;;;;0.50;0.50;;;;;;;16.35;39.38;99819.66;5070993;28;20535;-83
2023/06/10 07:04:34;;;;;;;0.50;0.50;;;;;;;16.64;39.67;99830.22;5070830;28;20050;-83
2023/06/10 07:07:02;;;;;;;0.50;0.50;;;;;;;17.07;39.35;99853.59;5070603;28;20525;-82
2023/06/10 07:09:29;;;;;;;0.50;0.50;;;;;;;17.19;39.25;99833.44;5053426;28;20079;-81
2023/06/10 07:11:57;;;;;;;0.40;0.40;;;;;;;17.26;39.42;99832.09;5053368;28;20083;-83
2023/06/10 07:14:26;;;;;;;0.40;0.40;;;;;;;17.14;39.08;99842.44;5070994;28;20048;-82
2023/06/10 07:16:54;;;;;;;0.40;0.40;;;;;;;16.60;39.69;99854.41;5036778;28;20075;-82
2023/06/10 07:19:21;;;;;;;0.40;0.40;;;;;;;16.47;39.88;99861.16;5070909;28;20135;-82
2023/06/10 07:21:50;;;;;;;0.50;0.50;;;;;;;16.63;39.38;99861.25;5069325;28;20048;-82
2023/06/10 07:24:17;;;;;;;0.40;0.40;;;;;;;16.63;39.48;99836.72;5073045;28;20052;-83
2023/06/10 07:26:44;;;;;;;0.40;0.40;;;;;;;16.54;39.06;99857.41;5073257;28;20044;-81
2023/06/10 07:29:26;;;;;;;0.50;0.50;;;;;;;16.27;39.62;99854.75;5055153;28;20538;-81
2023/06/10 07:31:53;;;;;;;0.50;0.50;;;;;;;16.64;39.82;99852.00;5072633;28;20825;-82
2023/06/10 07:34:20;;;;;;;0.40;0.40;;;;;;;16.88;39.06;99857.88;5089614;28;20044;-82
2023/06/10 07:36:50;;;;;;;0.40;0.40;;;;;;;16.47;39.01;99869.31;5090067;28;20048;-82
2023/06/10 07:39:20;;;;;;;0.40;0.40;;;;;;;16.07;40.11;99871.75;5072858;28;20058;-82
2023/06/10 07:41:48;;;;;;;0.40;0.40;;;;;;;15.80;40.68;99878.06;5072504;28;20056;-84
2023/06/10 07:44:16;;;;;;;0.40;0.40;;;;;;;15.73;40.73;99877.44;5073462;28;20048;-84
2023/06/10 07:46:43;;;;;;;0.40;0.40;;;;;;;15.67;40.70;99865.63;5091070;28;20048;-83
2023/06/10 07:49:10;;;;;;;0.60;0.60;;;;;;;15.93;40.40;99880.34;5035686;28;20048;-82
2023/06/10 07:51:37;;;;;;;0.60;0.60;;;;;;;16.24;39.51;99861.53;5076284;28;20048;-82
2023/06/10 07:54:05;;;;;;;0.60;0.60;;;;;;;16.97;38.28;99863.66;5055723;28;20056;-83
2023/06/10 07:56:33;;;;;;;0.60;0.60;;;;;;;17.55;37.29;99867.13;5072700;28;20147;-82
2023/06/10 07:59:06;;;;;;;0.50;0.50;;;;;;;18.01;36.30;99889.06;5085318;28;20518;-81
2023/06/10 08:01:35;;;;;;;0.60;0.60;;;;;;;17.90;35.50;99873.75;5072446;28;20058;-83
2023/06/10 08:04:04;;;;;;;0.60;0.60;;;;;;;17.60;35.72;99883.50;5071908;28;20151;-81
2023/06/10 08:06:31;;;;;;;0.52;0.52;;;;;;;17.39;35.57;99873.63;5052460;28;20076;-82
2023/06/10 08:08:59;;;;;;;0.40;0.40;;;;;;;16.95;36.27;99860.38;5069398;28;20534;-81
2023/06/10 08:11:29;;;;;;;0.40;0.40;;;;;;;16.78;36.88;99888.63;5070046;28;20075;-81
2023/06/10 08:13:56;;;;;;;0.40;0.40;;;;;;;16.69;36.86;99891.00;5036087;28;20410;-81
2023/06/10 08:16:24;;;;;;;0.40;0.40;;;;;;;16.43;37.71;99854.59;5052430;28;20048;-82
2023/06/10 08:18:51;;;;;;;0.40;0.40;;;;;;;16.38;37.37;99857.28;5054401;28;20048;-81
2023/06/10 08:21:21;;;;;;;0.50;0.50;;;;;;;16.37;36.78;99871.97;5077109;28;20166;-81
2023/06/10 08:23:53;;;;;;;0.40;0.40;;;;;;;16.52;37.17;99895.78;5087985;28;20414;-82
2023/06/10 08:26:20;;;;;;;0.40;0.40;;;;;;;16.52;37.36;99892.25;5072433;28;20075;-82
2023/06/10 08:28:57;;;;;;;0.60;0.60;;;;;;;16.54;37.06;99866.38;5089418;28;20103;-82
2023/06/10 08:31:24;;;;;;;0.70;0.70;;;;;;;17.53;35.60;99893.84;5087015;28;20046;-81
2023/06/10 08:33:52;;;;;;;0.70;0.70;;;;;;;18.54;34.17;99881.38;5080003;28;20048;-81
2023/06/10 08:36:22;;;;;;;0.50;0.50;;;;;;;19.49;33.08;99902.41;5082737;28;20054;-81
2023/06/10 08:38:49;;;;;;;0.40;0.40;;;;;;;19.31;32.98;99889.38;5046176;28;20056;-80
2023/06/10 08:41:18;;;;;;;0.50;0.50;;;;;;;19.54;33.19;99887.88;5048627;28;20045;-80
2023/06/10 08:43:51;;;;;;;0.70;0.70;;;;;;;19.13;33.44;99895.47;5048578;28;20412;-80
2023/06/10 08:46:21;;;;;;;0.40;0.40;;;;;;;19.05;34.23;99885.94;5048607;28;20075;-81
2023/06/10 08:48:49;;;;;;;0.40;0.40;;;;;;;18.83;34.82;99908.16;5049447;28;20128;-80
2023/06/10 08:51:17;;;;;;;0.40;0.40;;;;;;;18.45;35.20;99887.69;5032136;28;20053;-80
2023/06/10 08:54:02;;;;;;;0.40;0.40;;;;;;;18.04;35.71;99899.44;5049660;28;20090;-81
2023/06/10 08:56:36;;;;;;;0.40;0.40;;;;;;;17.71;35.52;99904.28;5048460;28;20060;-81
2023/06/10 08:59:08;;;;;;;0.50;0.50;;;;;;;18.01;35.34;99899.97;5032538;28;20063;-81
2023/06/10 09:01:48;;;;;;;0.40;0.40;;;;;;;18.23;34.54;99899.72;5049592;28;20134;-80
2023/06/10 09:04:17;;;;;;;0.40;0.40;;;;;;;18.27;33.71;99909.00;5048337;28;20095;-81
2023/06/10 09:06:45;;;;;;;0.60;0.60;;;;;;;18.91;33.08;99915.78;5048240;28;20045;-80
2023/06/10 09:09:14;;;;;;;0.40;0.40;;;;;;;18.64;33.16;99913.34;5049625;28;20458;-80
2023/06/10 09:11:43;;;;;;;0.40;0.40;;;;;;;18.13;33.93;99927.84;5031859;28;20045;-80
2023/06/10 09:14:12;;;;;;;0.40;0.40;;;;;;;17.79;34.44;99907.56;5048039;28;20045;-81
2023/06/10 09:16:40;;;;;;;0.50;0.50;;;;;;;17.82;34.48;99918.78;5032017;28;20060;-81
2023/06/10 09:19:08;;;;;;;0.50;0.50;;;;;;;18.50;34.06;99926.75;5048744;28;20086;-81
2023/06/10 09:21:37;;;;;;;0.40;0.40;;;;;;;18.35;32.81;99910.38;5049215;28;20049;-80
2023/06/10 09:24:05;;;;;;;0.45;0.45;;;;;;;18.18;33.36;99916.94;5035098;28;20049;-81
2023/06/10 09:26:32;;;;;;;0.70;0.70;;;;;;;19.17;32.04;99910.25;5052942;28;20102;-82
2023/06/10 09:29:12;;;;;;;0.80;0.80;;;;;;;20.75;29.75;99916.59;5051316;28;20506;-81
2023/06/10 09:31:45;;;;;;;0.77;0.77;;;;;;;21.62;27.98;99905.44;5051567;28;20049;-81
2023/06/10 09:34:14;;;;;;;0.90;0.90;;;;;;;22.12;26.54;99893.97;5035313;28;20049;-81
2023/06/10 09:36:43;;;;;;;0.80;0.80;;;;;;;23.17;24.87;99915.53;5052600;28;20045;-80
2023/06/10 09:39:15;;;;;;;0.73;0.73;;;;;;;23.32;24.55;99903.34;5038832;28;20425;-80
2023/06/10 09:41:44;;;;;;;0.73;0.73;;;;;;;23.57;24.45;99902.84;5037953;28;20052;-81
2023/06/10 09:44:18;;;;;;;0.80;0.80;;;;;;;23.90;23.62;99921.97;5056282;28;20045;-81
2023/06/10 09:46:50;;;;;;;0.38;0.38;;;;;;;23.68;23.42;99902.59;5072638;28;20048;-81
2023/06/10 09:49:20;;;;;;;0.30;0.30;;;;;;;22.47;24.77;99906.31;5055240;28;20057;-80
2023/06/10 09:51:53;;;;;;;0.40;0.40;;;;;;;21.08;25.97;99923.09;5071910;28;20078;-80
2023/06/10 09:54:21;;;;;;;0.80;0.80;;;;;;;22.57;25.00;99910.03;5072484;28;20139;-80
2023/06/10 09:56:51;;;;;;;0.40;0.40;;;;;;;23.53;24.30;99920.28;5037612;28;20041;-81
2023/06/10 09:59:33;;;;;;;0.80;0.80;;;;;;;23.14;24.32;99907.84;5072107;28;20052;-81
2023/06/10 10:02:00;;;;;;;0.70;0.70;;;;;;;23.79;23.88;99913.09;5072319;28;20076;-80
2023/06/10 10:04:28;;;;;;;0.30;0.30;;;;;;;23.29;24.24;99913.03;5072492;28;20052;-82
2023/06/10 10:06:55;;;;;;;0.30;0.30;;;;;;;21.70;26.31;99919.59;5054186;28;20407;-80
2023/06/10 10:09:23;;;;;;;0.30;0.30;;;;;;;20.18;27.79;99916.28;5074309;28;20468;-82
2023/06/10 10:11:51;;;;;;;0.38;0.38;;;;;;;19.64;28.38;99936.28;5073571;28;20048;-80
2023/06/10 10:14:20;;;;;;;0.40;0.40;;;;;;;19.12;28.66;99932.16;5074775;28;20055;-80
2023/06/10 10:16:51;;;;;;;0.90;0.90;;;;;;;20.93;27.41;99921.34;5074341;28;20052;-81
2023/06/10 10:19:31;;;;;;;0.80;0.80;;;;;;;22.87;24.90;99925.16;5074478;28;20530;-81
2023/06/10 10:22:10;;;;;;;0.90;0.90;;;;;;;24.21;22.91;99910.19;5090788;28;20048;-80
2023/06/10 10:24:50;;;;;;;0.80;0.80;;;;;;;25.34;22.00;99921.84;5092482;28;20564;-79
2023/06/10 10:27:22;;;;;;;0.80;0.80;;;;;;;26.40;21.63;99912.50;5092640;28;20387;-81
2023/06/10 10:29:53;;;;;;;0.70;0.70;;;;;;;27.14;20.53;99906.56;5074711;28;20415;-80
2023/06/10 10:32:43;;;;;;;0.30;0.30;;;;;;;25.54;21.96;99923.19;5074559;28;20040;-80
2023/06/10 10:35:21;;;;;;;0.30;0.30;;;;;;;22.62;24.66;99912.69;5056350;28;20052;-79
2023/06/10 10:37:51;;;;;;;0.30;0.30;;;;;;;21.07;26.41;99935.19;5034250;28;20064;-81
2023/06/10 10:40:20;;;;;;;0.30;0.30;;;;;;;20.11;27.31;99943.97;5050493;28;20405;-82
2023/06/10 10:42:51;;;;;;;0.40;0.40;;;;;;;19.49;28.26;99924.31;5050327;28;20693;-81
2023/06/10 10:45:19;;;;;;;0.40;0.40;;;;;;;19.28;28.79;99936.47;5050146;28;20144;-80
2023/06/10 10:47:53;;;;;;;0.47;0.47;;;;;;;19.61;28.52;99928.66;5051625;28;20102;-80
2023/06/10 10:50:21;;;;;;;0.50;0.50;;;;;;;20.34;27.57;99933.41;5051587;28;20076;-80
2023/06/10 10:52:48;;;;;;;0.50;0.50;;;;;;;21.47;25.66;99929.53;5051300;28;20094;-81
2023/06/10 10:55:27;;;;;;;0.90;0.90;;;;;;;22.49;25.43;99928.84;5051813;28;20080;-81
2023/06/10 10:57:56;;;;;;;0.90;0.90;;;;;;;24.02;23.59;99921.41;5051231;28;20396;-82
2023/06/10 11:00:37;;;;;;;0.80;0.80;;;;;;;25.14;22.41;99923.22;5050080;28;20049;-81
2023/06/10 11:03:10;;;;;;;0.65;0.65;;;;;;;25.71;21.46;99922.41;5049467;28;20450;-81
2023/06/10 11:05:40;;;;;;;0.30;0.30;;;;;;;23.49;22.55;99911.81;5050465;28;20084;-81
2023/06/10 11:08:08;;;;;;;0.90;0.90;;;;;;;22.76;24.15;99920.94;5051215;28;20098;-83
2023/06/10 11:10:59;;;;;;;0.70;0.70;;;;;;;24.44;22.79;99908.25;5052112;28;20499;-81
2023/06/10 11:13:29;;;;;;;0.73;0.73;;;;;;;26.49;21.72;99882.88;5034589;28;20103;-82
2023/06/10 11:15:57;;;;;;;0.50;0.50;;;;;;;25.40;22.35;99904.00;5050600;28;20048;-81
2023/06/10 11:18:39;;;;;;;0.30;0.30;;;;;;;23.11;24.21;99919.47;5048129;28;20076;-82
2023/06/10 11:21:23;;;;;;;0.30;0.30;;;;;;;21.21;26.27;99919.66;5039439;28;20477;-80
2023/06/10 11:23:58;;;;;;;0.30;0.30;;;;;;;20.45;27.29;99928.66;5057581;28;20075;-82
2023/06/10 11:26:33;;;;;;;0.90;0.90;;;;;;;21.03;26.51;99925.91;5065156;28;20318;-79
2023/06/10 11:29:05;;;;;;;0.55;0.55;;;;;;;22.66;24.45;99931.03;5070195;28;20053;-82
2023/06/10 11:31:47;;;;;;;0.90;0.90;;;;;;;23.15;23.02;99924.09;5056591;28;20056;-82
2023/06/10 11:34:23;;;;;;;0.90;0.90;;;;;;;24.82;22.17;99933.50;5049630;28;20049;-82
2023/06/10 11:36:51;;;;;;;0.90;0.90;;;;;;;26.12;20.73;99912.84;5049969;28;20522;-84
2023/06/10 11:39:20;;;;;;;0.50;0.50;;;;;;;27.57;19.98;99933.25;5092618;28;20059;-83
2023/06/10 11:41:52;;;;;;;0.40;0.40;;;;;;;26.51;20.01;99924.84;5089024;28;20048;-84
2023/06/10 11:44:19;;;;;;;0.30;0.30;;;;;;;25.52;21.12;99928.22;5092208;28;20290;-86
2023/06/10 11:46:50;;;;;;;0.70;0.70;;;;;;;26.23;20.40;99903.09;5089488;28;20036;-83
2023/06/10 11:49:20;;;;;;;0.70;0.70;;;;;;;27.03;19.79;99935.78;5049199;28;20134;-82
2023/06/10 11:51:51;;;;;;;0.60;0.60;;;;;;;28.05;19.68;99925.59;5052418;28;20477;-84
2023/06/10 11:54:19;;;;;;;0.50;0.50;;;;;;;28.49;18.78;99935.19;5070787;28;20052;-81
2023/06/10 11:56:47;;;;;;;0.60;0.60;;;;;;;28.52;18.83;99937.25;5052353;28;20427;-83